23 mai 2022

Temps Code Temps Temp. Vue Des nuages Vent METAR/SPECI
09:50
V
16 °C 10 km+ - 130°   130° 4 kt METAR EDJA 230750Z 13004KT 090V160 CAVOK 16/12 Q1009
09:20
V
14 °C 10 km+ - 060°   060° 9 kt METAR EDJA 230720Z 06009KT 030V110 9999 -RA FEW037 14/11 Q1008
08:50
V
15 °C 10 km+ - 350°   350° 8 kt METAR EDJA 230650Z 35008KT 9999 -RA NSC 15/11 Q1010
08:20
V
15 °C 10 km+ - 210°   210° 5 kt METAR EDJA 230620Z 21005KT 9999 FEW054 15/13 Q1009
07:50
V
14 °C 10 km+ - 230°   230° 4 kt METAR EDJA 230550Z 23004KT 150V290 9999 -RA NSC 14/12 Q1009
07:20
V
13 °C 10 km+ - 280°   280° 2 kt METAR EDJA 230520Z 28002KT CAVOK 13/11 Q1009
06:50
V
12 °C 10 km+ - Var   Var 2 kt METAR EDJA 230450Z VRB02KT CAVOK 12/10 Q1008
06:20
V
11 °C 10 km+ - Var   Var 2 kt METAR EDJA 230420Z VRB02KT CAVOK 11/09 Q1008
05:50
V
11 °C 10 km+ - 170°   170° 4 kt METAR EDJA 230350Z 17004KT CAVOK 11/09 Q1008
05:20
V
11 °C 10 km+ - Var   Var 2 kt METAR EDJA 230320Z AUTO VRB02KT 9999 // FEW110/// 11/09 Q1009
04:50
V
11 °C 10 km+ - Var   Var 2 kt METAR EDJA 230250Z AUTO VRB02KT 9999 // FEW110/// 11/08 Q1009
04:20
V
11 °C 10 km+ - 040°   040° 2 kt METAR EDJA 230220Z AUTO 04002KT 9999 // FEW110/// 11/09 Q1009
03:50
V
11 °C 10 km+ 11.000 ft 140°   140° 2 kt METAR EDJA 230150Z AUTO 14002KT 9999 // FEW081/// BKN110/// 11/09 Q1010
03:20
V
11 °C 10 km+ - 160°   160° 3 kt METAR EDJA 230120Z AUTO 16003KT 100V200 9999 // FEW110/// 11/09 Q1010
02:50
V
11 °C 10 km+ - 190°   190° 4 kt METAR EDJA 230050Z AUTO 19004KT 9999 // NCD 11/09 Q1010
02:20
V
11 °C 10 km+ - 060°   060° 3 kt METAR EDJA 230020Z AUTO 06003KT 9999 // NCD 11/09 Q1010
01:50
V
12 °C 10 km+ - 050°   050° 2 kt METAR EDJA 222350Z AUTO 05002KT 9999 // NCD 12/09 Q1010
01:20
V
11 °C 10 km+ - 040°   040° 3 kt METAR EDJA 222320Z AUTO 04003KT 9999 // NCD 11/09 Q1010
00:50
V
14 °C 10 km+ - 030°   030° 3 kt METAR EDJA 222250Z AUTO 03003KT 9999 // NCD 14/09 Q1011
00:20
V
14 °C 10 km+ - 070°   070° 3 kt METAR EDJA 222220Z AUTO 07003KT 9999 // NCD 14/08 Q1011

22 mai 2022

Temps Code Temps Temp. Vue Des nuages Vent METAR/SPECI
23:50
V
12 °C 10 km+ - 030°   030° 4 kt METAR EDJA 222150Z AUTO 03004KT 9999 // NCD 12/08 Q1011
23:20
V
14 °C 10 km+ - Var   Var 1 kt METAR EDJA 222120Z AUTO VRB01KT 9999 // FEW220/// 14/09 Q1012
22:50
V
14 °C 10 km+ - 050°   050° 4 kt METAR EDJA 222050Z 05004KT CAVOK 14/09 Q1012
22:20
V
16 °C 10 km+ - Var   Var 2 kt METAR EDJA 222020Z VRB02KT CAVOK 16/09 Q1013
21:50
V
16 °C 10 km+ - 110°   110° 5 kt METAR EDJA 221950Z 11005KT 070V140 CAVOK 16/09 Q1012
21:20
V
17 °C 10 km+ - 120°   120° 4 kt METAR EDJA 221920Z 12004KT CAVOK 17/10 Q1012
20:50
V
18 °C 10 km+ - 090°   090° 3 kt METAR EDJA 221850Z 09003KT 030V160 CAVOK 18/09 Q1013
20:20
V
18 °C 10 km+ - 120°   120° 7 kt METAR EDJA 221820Z 12007KT CAVOK 18/09 Q1012
19:50
V
18 °C 10 km+ - 110°   110° 6 kt METAR EDJA 221750Z 11006KT CAVOK 18/10 Q1013
19:20
V
19 °C 10 km+ - 050°   050° 4 kt METAR EDJA 221720Z 05004KT CAVOK 19/12 Q1014
18:50
V
20 °C 10 km+ - 020°   020° 5 kt METAR EDJA 221650Z 02005KT 350V060 CAVOK 20/10 Q1014
18:20
V
20 °C 10 km+ - 030°   030° 7 kt METAR EDJA 221620Z 03007KT CAVOK 20/10 Q1013
17:50
V
20 °C 10 km+ - 030°   030° 8 kt METAR EDJA 221550Z 03008KT CAVOK 20/10 Q1014
17:20
V
20 °C 10 km+ - 020°   020° 6 kt METAR EDJA 221520Z 02006KT CAVOK 20/12 Q1013
16:50
V
22 °C 10 km+ - 010°   010° 6 kt METAR EDJA 221450Z 01006KT 350V050 CAVOK 22/10 Q1013
16:20
V
23 °C 10 km+ - 050°   050° 5 kt METAR EDJA 221420Z 05005KT CAVOK 23/08 Q1014
15:50
V
23 °C 10 km+ - Var   Var 3 kt METAR EDJA 221350Z VRB03KT CAVOK 23/08 Q1014
15:20
V
22 °C 10 km+ - 330°   330° 5 kt METAR EDJA 221320Z 33005KT 300V020 CAVOK 22/07 Q1014
14:50
V
22 °C 10 km+ - Var   Var 4 kt METAR EDJA 221250Z VRB04KT CAVOK 22/08 Q1015
14:20
V
23 °C 10 km+ - Var   Var 2 kt METAR EDJA 221220Z VRB02KT CAVOK 23/09 Q1015
13:50
V
22 °C 10 km+ - Var   Var 3 kt METAR EDJA 221150Z VRB03KT CAVOK 22/11 Q1015
13:20
V
21 °C 10 km+ - 260°   260° 4 kt METAR EDJA 221120Z 26004KT 190V320 CAVOK 21/09 Q1016
12:50
V
21 °C 10 km+ - 260°   260° 4 kt METAR EDJA 221050Z 26004KT 200V310 CAVOK 21/09 Q1016
12:20
V
20 °C 10 km+ - 360°   360° 4 kt METAR EDJA 221020Z 36004KT 320V080 CAVOK 20/10 Q1016
11:50
V
20 °C 10 km+ - Var   Var 3 kt METAR EDJA 220950Z VRB03KT CAVOK 20/10 Q1016
11:20
V
20 °C 10 km+ - 050°   050° 4 kt METAR EDJA 220920Z 05004KT 320V130 CAVOK 20/10 Q1017
10:50
V
19 °C 10 km+ - 360°   360° 3 kt METAR EDJA 220850Z 36003KT 290V100 CAVOK 19/10 Q1017
10:20
V
19 °C 10 km+ - Var   Var 2 kt METAR EDJA 220820Z VRB02KT CAVOK 19/10 Q1017
09:50
V
19 °C 10 km+ - Var   Var 1 kt METAR EDJA 220750Z VRB01KT CAVOK 19/09 Q1017
09:20
V
17 °C 10 km+ - Var   Var 2 kt METAR EDJA 220720Z VRB02KT CAVOK 17/10 Q1017
08:50
V
16 °C 10 km+ - Var   Var 1 kt METAR EDJA 220650Z VRB01KT CAVOK 16/11 Q1017
08:20
V
14 °C 10 km+ - Var   Var 1 kt METAR EDJA 220620Z VRB01KT CAVOK 14/09 Q1018
07:50
V
13 °C 10 km+ - Var   Var 1 kt METAR EDJA 220550Z VRB01KT CAVOK 13/10 Q1018
07:20
V
11 °C 10 km+ - Var   Var 1 kt METAR EDJA 220520Z VRB01KT CAVOK 11/08 Q1018
06:50
V
10 °C 10 km+ - Var   Var 2 kt METAR EDJA 220450Z VRB02KT CAVOK 10/08 Q1018
06:20
V
8 °C 10 km+ - 130°   130° 2 kt METAR EDJA 220420Z 13002KT CAVOK 08/07 Q1018
05:50
V
9 °C 10 km+ - 150°   150° 3 kt METAR EDJA 220350Z 15003KT 9999 FEW043 09/08 Q1018
05:20
V
9 °C 10 km+ - 150°   150° 2 kt METAR EDJA 220320Z AUTO 15002KT 9999 // FEW044/// 09/08 Q1018
04:50
V
8 °C 10 km+ - Var   000° 0 kt METAR EDJA 220250Z AUTO 00000KT 9999 // FEW045/// 08/08 Q1019
04:20
V
9 °C 10 km+ - 170°   170° 2 kt METAR EDJA 220220Z AUTO 17002KT 9999 // NCD 09/08 Q1019
03:50
V
9 °C 10 km+ - 030°   030° 3 kt METAR EDJA 220150Z AUTO 03003KT 9999 // NCD 09/08 Q1019
03:20
V
9 °C 10 km+ - 030°   030° 4 kt METAR EDJA 220120Z AUTO 03004KT 9999 // NCD 09/08 Q1019
02:50
V
10 °C 10 km+ - Var   Var 1 kt METAR EDJA 220050Z AUTO VRB01KT 9999 // FEW042/// 10/08 Q1019
02:20
V
10 °C 10 km+ 4.100 ft 070°   070° 1 kt METAR EDJA 220020Z AUTO 07001KT 9999 // BKN041/// 10/08 Q1019
01:50
V
11 °C 10 km+ - 030°   030° 2 kt METAR EDJA 212350Z AUTO 03002KT 9999 // FEW041/// 11/08 Q1020
01:20
V
11 °C 10 km+ - 020°   020° 2 kt METAR EDJA 212320Z AUTO 02002KT 9999 // NCD 11/08 Q1020
00:50
V
11 °C 10 km+ - Var   Var 1 kt METAR EDJA 212250Z AUTO VRB01KT 9999 // NCD 11/09 Q1020
00:20
V
12 °C 10 km+ - 060°   060° 3 kt METAR EDJA 212220Z AUTO 06003KT 9999 // NCD 12/08 Q1020

21 mai 2022

Temps Code Temps Temp. Vue Des nuages Vent METAR/SPECI
23:50
V
13 °C 10 km+ - 050°   050° 2 kt METAR EDJA 212150Z AUTO 05002KT 9999 // NCD 13/09 Q1020
23:20
V
14 °C 10 km+ - 020°   020° 2 kt METAR EDJA 212120Z AUTO 02002KT 9999 // NCD 14/08 Q1020
22:50
V
14 °C 10 km+ - 040°   040° 3 kt METAR EDJA 212050Z AUTO 04003KT 9999 // NCD 14/09 Q1020
22:20
V
13 °C 10 km+ - 030°   030° 5 kt METAR EDJA 212020Z AUTO 03005KT 9999 // NCD 13/09 Q1020
21:50
V
14 °C 10 km+ - 020°   020° 6 kt METAR EDJA 211950Z 02006KT CAVOK 14/10 Q1020
21:20
V
15 °C 10 km+ - 030°   030° 7 kt METAR EDJA 211920Z 03007KT 9999 FEW042 15/10 Q1020
20:50
V
17 °C 10 km+ - 010°   010° 7 kt METAR EDJA 211850Z 01007KT 9999 SCT041 17/11 Q1020
20:20
V
19 °C 10 km+ - 230°   230° 7 kt METAR EDJA 211820Z 23007KT 9999 FEW045 19/12 Q1020
19:50
V
20 °C 10 km+ - 220°   220° 7 kt METAR EDJA 211750Z 22007KT 9999 FEW045 20/12 Q1020
19:20
V
20 °C 10 km+ - 230°   230° 9 kt METAR EDJA 211720Z 23009KT 9999 FEW050 20/12 Q1020
18:50
V
21 °C 10 km+ - 250°   250° 8 kt METAR EDJA 211650Z 25008KT 220V280 9999 FEW058 21/10 Q1021
18:20
V
21 °C 10 km+ - 250°   250° 9 kt METAR EDJA 211620Z 25009KT 9999 FEW059 21/10 Q1021
17:50
V
22 °C 10 km+ - 280°   280° 11 kt METAR EDJA 211550Z 28011KT 9999 FEW062 22/09 Q1021
17:20
V
22 °C 10 km+ - 280°   280° 11 kt METAR EDJA 211520Z 28011KT 9999 FEW062 22/09 Q1021
16:50
V
22 °C 10 km+ - 270°   270° 14 kt METAR EDJA 211450Z 27014KT 9999 FEW060 22/09 Q1021
16:20
V
22 °C 10 km+ - 270°   270° 12 kt METAR EDJA 211420Z 27012KT CAVOK 22/09 Q1022
15:50
V
22 °C 10 km+ - 290°   290° 11 kt METAR EDJA 211350Z 29011KT 230V330 CAVOK 22/10 Q1022
15:20
V
21 °C 10 km+ - 260°   260° 10 kt METAR EDJA 211320Z 26010KT 230V290 CAVOK 21/09 Q1022
14:50
V
21 °C 10 km+ - 270°   270° 10 20 kt METAR EDJA 211250Z 27010G20KT 210V320 9999 FEW053 21/10 Q1022
14:20
V
20 °C 10 km+ - 280°   280° 7 kt METAR EDJA 211220Z 28007KT 230V310 9999 FEW050 20/10 Q1023
13:50
V
20 °C 10 km+ - 230°   230° 8 kt METAR EDJA 211150Z 23008KT 200V260 9999 FEW052 20/10 Q1023
13:20
V
20 °C 10 km+ - 250°   250° 9 kt METAR EDJA 211120Z 25009KT 210V290 CAVOK 20/10 Q1023
12:50
V
19 °C 10 km+ - 220°   220° 11 kt METAR EDJA 211050Z 22011KT CAVOK 19/10 Q1023
12:20
V
18 °C 10 km+ - 230°   230° 9 kt METAR EDJA 211020Z 23009KT 9999 FEW044 18/10 Q1023
11:50
V
18 °C 10 km+ - 220°   220° 9 kt METAR EDJA 210950Z 22009KT 190V260 CAVOK 18/10 Q1023
11:20
V
18 °C 10 km+ - 230°   230° 9 kt METAR EDJA 210920Z 23009KT 200V260 CAVOK 18/10 Q1024
10:50
V
18 °C 10 km+ - 280°   280° 5 kt METAR EDJA 210850Z 28005KT 240V320 CAVOK 18/11 Q1024
10:20
V
17 °C 10 km+ - 270°   270° 6 kt METAR EDJA 210820Z 27006KT 210V310 9999 FEW032 17/11 Q1024
09:50
V
17 °C 10 km+ - 300°   300° 5 kt METAR EDJA 210750Z 30005KT 260V330 9999 FEW022 17/11 Q1024
09:20
V
16 °C 10 km+ - 310°   310° 6 kt METAR EDJA 210720Z 31006KT 280V350 9999 FEW019 16/11 Q1024
Données plus anciennes

Télécharge notre application

Un accès facile à toute la météo aéronautique sur ton téléphone portable et ta tablette.
Avec de nombreuses fonctionnalités non disponibles sur le site Web, comme la prise en charge hors ligne et une liste personnelle d'aéroports.

Nous et des tiers suivons ton comportement sur Internet sur notre site Web à l'aide de cookies. Si tu continues, nous supposons que tu acceptes notre politique en matière de cookies. Apprendre plus